Terminal Aerodrome Forecast
Issued by NWS

Home | Current Version | Previous Version | Text Only | Print | Product List | Glossary On
Versions: 1 2 3 4 5 6 7 8 9 10 11 12 13 14 15 16 17 18 19 20 21 22
413
FTUS46 KMTR 071047 AAB
TAFSTS
TAF AMD
KSTS 071047Z 0711/0806 VRB03KT 3SM BR SCT001
      TEMPO 0711/0715 3/4SM BR VV001
     FM071600 VRB03KT 6SM BR SKC
     FM072000 31004KT P6SM SKC=

USA.gov is the U.S. government's official web portal to all federal, state and local government web resources and services.